This is the latest recevied weather packets stored in our database for station/object KD8ZLZ-13. If no packets are shown the sender has not sent any weather packets the latest 10 day(s).
| Time | Temp. | Humidity | Pressure | Rain* | Wind** | Luminosity | Snow |
|---|---|---|---|---|---|---|---|
| 1778148043 | 3.89° C | 80% | 1013.6 hPa | 0 mm | - | 0 W/m² | - |
| 1778147443 | 4.44° C | 75% | 1013.6 hPa | 0 mm | - | 0 W/m² | - |
| 1778146843 | 5° C | 76% | 1013.6 hPa | 0 mm | - | 0 W/m² | - |
| 1778146243 | 4.44° C | 74% | 1013.6 hPa | 0 mm | - | 0 W/m² | - |
| 1778145643 | 5° C | 71% | 1013.6 hPa | 0 mm | - | 0 W/m² | - |
| 1778145043 | 5.56° C | 70% | 1013.6 hPa | 0 mm | - | 0 W/m² | - |
| 1778144443 | 6.11° C | 67% | 1013.6 hPa | 0 mm | - | 0 W/m² | - |
| 1778143843 | 6.67° C | 65% | 1013.6 hPa | 0 mm | - | 0 W/m² | - |
| 1778143243 | 6.67° C | 64% | 1013.6 hPa | 0 mm | - | 0 W/m² | - |
| 1778142643 | 7.22° C | 63% | 1013.9 hPa | 0 mm | - | 0 W/m² | - |
| 1778142043 | 7.22° C | 58% | 1013.9 hPa | 0 mm | - | 0 W/m² | - |
| 1778141443 | 7.22° C | 58% | 1013.6 hPa | 0 mm | - | 0 W/m² | - |
| 1778140843 | 7.22° C | 59% | 1013.6 hPa | 0 mm | - | 0 W/m² | - |
| 1778140243 | 7.22° C | 62% | 1013.6 hPa | 0 mm | - | 0 W/m² | - |
| 1778139643 | 7.78° C | 60% | 1013.6 hPa | 0 mm | - | 0 W/m² | - |
| 1778139043 | 7.78° C | 59% | 1013.6 hPa | 0 mm | - | 0 W/m² | - |
| 1778138443 | 7.78° C | 60% | 1013.9 hPa | 0 mm | - | 0 W/m² | - |
| 1778137843 | 7.22° C | 60% | 1013.9 hPa | 0 mm | - | 0 W/m² | - |
| 1778137243 | 7.22° C | 62% | 1013.9 hPa | 0 mm | - | 0 W/m² | - |
| 1778136643 | 7.78° C | 58% | 1013.9 hPa | 0 mm | - | 0 W/m² | - |
| 1778136043 | 7.78° C | 60% | 1013.9 hPa | 0 mm | - | 0 W/m² | - |
| 1778135443 | 7.22° C | 65% | 1013.9 hPa | 0 mm | - | 0 W/m² | - |
| 1778134843 | 7.78° C | 65% | 1013.9 hPa | 0 mm | - | 0 W/m² | - |
| 1778134243 | 7.78° C | 66% | 1013.9 hPa | 0 mm | - | 0 W/m² | - |
| 1778133643 | 7.22° C | 70% | 1013.9 hPa | 0 mm | - | 0 W/m² | - |
* Rain latest hour (hover to see other rain measurements)
** Current wind speed in m/s (hover to see current wind gust speed)